createdAt,value
2019-01-04T00:02:19.776Z,94733.02
2019-01-04T00:04:52.603Z,94740.21
2019-01-04T00:07:25.500Z,94736.38
2019-01-04T00:09:58.340Z,94736.17
2019-01-04T00:12:31.215Z,94739.28
2019-01-04T00:15:04.403Z,94743.13
2019-01-04T00:17:37.275Z,94743.74
2019-01-04T00:20:11.674Z,94751.45
2019-01-04T00:22:44.669Z,94743.11
2019-01-04T00:25:17.653Z,94748.58
2019-01-04T00:27:50.440Z,94757.39
2019-01-04T00:30:23.585Z,94757.06
2019-01-04T00:32:56.549Z,94757.25
2019-01-04T00:35:29.520Z,94753.87
2019-01-04T00:38:02.412Z,94756.76
2019-01-04T00:40:35.213Z,94768.83
2019-01-04T00:43:08.058Z,94757.44
2019-01-04T00:45:41.018Z,94764.67
2019-01-04T00:48:13.946Z,94764.36
2019-01-04T00:50:46.837Z,94762.77
2019-01-04T00:53:19.742Z,94762.77
2019-01-04T00:56:42.608Z,94764.67
2019-01-04T01:00:08.740Z,94774.16
2019-01-04T01:04:04.802Z,94769.16
2019-01-04T01:07:49.162Z,94768.39
2019-01-04T01:11:25.896Z,94770.48
2019-01-04T01:15:12.585Z,94771.12
2019-01-04T01:18:51.837Z,94766.30
2019-01-04T01:22:35.164Z,94764.33
2019-01-04T01:26:04.975Z,94759.69
2019-01-04T01:29:28.471Z,94757.63
2019-01-04T01:33:02.012Z,94764.22
2019-01-04T01:36:38.515Z,94760.36
2019-01-04T01:40:12.074Z,94763.58
2019-01-04T01:43:38.244Z,94762.13
2019-01-04T01:46:49.861Z,94762.45
2019-01-04T01:50:17.280Z,94764.37
2019-01-04T01:52:51.808Z,94751.36
2019-01-04T01:55:25.466Z,94754.89
2019-01-04T01:57:58.355Z,94757.94
2019-01-04T02:00:31.564Z,94752.81
2019-01-04T02:03:04.792Z,94759.06
2019-01-04T02:05:37.635Z,94766.09
2019-01-04T02:08:10.708Z,94755.65
2019-01-04T02:10:43.793Z,94759.38
2019-01-04T02:13:16.987Z,94752.19
2019-01-04T02:15:50.136Z,94756.66
2019-01-04T02:18:23.036Z,94754.75
2019-01-04T02:20:56.400Z,94754.61
2019-01-04T02:23:29.591Z,94756.52
2019-01-04T02:26:02.729Z,94762.77
2019-01-04T02:28:35.698Z,94762.94
2019-01-04T02:31:08.944Z,94763.91
2019-01-04T02:33:42.125Z,94770.50
2019-01-04T02:36:15.128Z,94765.19
2019-01-04T02:38:48.159Z,94770.02
2019-01-04T02:41:21.041Z,94769.84
2019-01-04T02:43:54.282Z,94771.61
2019-01-04T02:46:27.365Z,94767.63
2019-01-04T02:49:00.280Z,94768.27
2019-01-04T02:51:33.187Z,94763.74
2019-01-04T02:54:07.899Z,94769.20
2019-01-04T02:56:40.888Z,94763.59
2019-01-04T02:59:13.867Z,94763.61
2019-01-04T03:01:47.505Z,94774.67
2019-01-04T03:04:20.408Z,94775.14
2019-01-04T03:06:53.752Z,94773.70
2019-01-04T03:09:26.808Z,94770.20
2019-01-04T03:11:59.858Z,94776.59
2019-01-04T03:14:32.868Z,94781.09
2019-01-04T03:17:05.817Z,94781.56
2019-01-04T03:19:38.706Z,94785.74
2019-01-04T03:22:11.687Z,94792.16
2019-01-04T03:24:44.873Z,94797.61
2019-01-04T03:27:17.897Z,94798.89
2019-01-04T03:29:52.096Z,94795.52
2019-01-04T03:32:25.037Z,94796.33
2019-01-04T03:34:58.330Z,94794.87
2019-01-04T03:37:31.465Z,94795.99
2019-01-04T03:40:04.672Z,94793.75
2019-01-04T03:42:38.224Z,94791.50
2019-01-04T03:45:11.695Z,94797.11
2019-01-04T03:47:45.095Z,94796.30
2019-01-04T03:50:18.207Z,94804.64
2019-01-04T03:52:51.360Z,94804.83
2019-01-04T03:55:24.462Z,94800.96
2019-01-04T03:57:57.591Z,94812.02
2019-01-04T04:00:30.603Z,94810.58
2019-01-04T04:03:03.635Z,94817.31
2019-01-04T04:05:36.618Z,94816.84
2019-01-04T04:08:09.668Z,94821.98
2019-01-04T04:10:42.657Z,94824.55
2019-01-04T04:13:15.395Z,94827.59
2019-01-04T04:15:48.197Z,94833.55
2019-01-04T04:18:21.251Z,94832.42
2019-01-04T04:20:54.311Z,94831.44
2019-01-04T04:23:27.246Z,94826.46
2019-01-04T04:26:00.779Z,94830.16
2019-01-04T04:28:34.008Z,94831.13
2019-01-04T04:31:08.369Z,94829.84
2019-01-04T04:33:41.564Z,94832.73
2019-01-04T04:36:14.619Z,94837.87
2019-01-04T04:38:47.450Z,94835.94
2019-01-04T04:41:20.787Z,94836.09
2019-01-04T04:43:54.181Z,94846.69
2019-01-04T04:46:27.556Z,94845.23
2019-01-04T04:49:00.834Z,94848.78
2019-01-04T04:51:34.033Z,94850.86
2019-01-04T04:54:07.213Z,94850.23
2019-01-04T04:56:40.314Z,94855.52
2019-01-04T04:59:13.830Z,94857.62
2019-01-04T05:01:47.611Z,94854.21
2019-01-04T05:04:20.817Z,94865.47
2019-01-04T05:06:53.779Z,94864.50
2019-01-04T05:09:27.112Z,94867.38
2019-01-04T05:12:00.158Z,94874.78
2019-01-04T05:14:33.052Z,94878.78
2019-01-04T05:17:06.175Z,94882.61
2019-01-04T05:19:39.133Z,94886.28
2019-01-04T05:22:12.272Z,94885.80
2019-01-04T05:24:48.299Z,94889.50
2019-01-04T05:27:21.530Z,94888.70
2019-01-04T05:29:54.666Z,94891.27
2019-01-04T05:32:28.168Z,94895.14
2019-01-04T05:35:01.607Z,94898.64
2019-01-04T05:37:34.497Z,94902.97
2019-01-04T05:40:08.658Z,94907.30
2019-01-04T05:42:41.630Z,94911.79
2019-01-04T05:45:14.811Z,94919.82
2019-01-04T05:47:48.524Z,94922.39
2019-01-04T05:50:22.045Z,94927.47
2019-01-04T05:52:55.271Z,94931.96
2019-01-04T05:55:28.535Z,94934.39
2019-01-04T05:58:01.604Z,94941.62
2019-01-04T06:00:34.651Z,94942.89
2019-01-04T06:03:07.833Z,94950.77
2019-01-04T06:05:41.116Z,94953.67
2019-01-04T06:08:14.331Z,94952.09
2019-01-04T06:10:47.604Z,94959.30
2019-01-04T06:13:20.798Z,94958.82
2019-01-04T06:15:53.772Z,94968.75
2019-01-04T06:18:27.086Z,94978.86
2019-01-04T06:21:00.343Z,94981.73
2019-01-04T06:23:33.990Z,94994.89
2019-01-04T06:26:07.100Z,94993.77
2019-01-04T06:28:40.354Z,95001.50
2019-01-04T06:31:13.692Z,95000.70
2019-01-04T06:33:46.818Z,95006.33
2019-01-04T06:36:19.955Z,95008.55
2019-01-04T06:41:55.442Z,95005.44
2019-01-04T06:44:28.629Z,95016.66
2019-01-04T06:47:22.090Z,95011.70
2019-01-04T06:49:55.826Z,95030.32
2019-01-04T06:52:29.147Z,95029.04
2019-01-04T06:55:57.250Z,95034.47
2019-01-04T06:58:30.391Z,95047.59
2019-01-04T07:01:03.664Z,95049.02
2019-01-04T07:03:37.639Z,95055.47
2019-01-04T07:06:11.100Z,95063.51
2019-01-04T07:08:44.410Z,95067.35
2019-01-04T07:11:19.808Z,95070.89
2019-01-04T07:13:53.053Z,95078.27
2019-01-04T07:16:26.820Z,95083.08
2019-01-04T07:19:00.071Z,95088.62
2019-01-04T07:21:33.282Z,95095.34
2019-01-04T07:24:06.552Z,95093.56
2019-01-04T07:26:39.628Z,95102.90
2019-01-04T07:29:13.837Z,95103.42
2019-01-04T07:31:47.559Z,95114.98
2019-01-04T07:34:21.229Z,95113.05
2019-01-04T07:36:54.691Z,95114.67
2019-01-04T07:39:27.845Z,95128.80
2019-01-04T07:42:00.988Z,95136.89
2019-01-04T07:44:34.004Z,95138.20
2019-01-04T07:47:07.153Z,95143.72
2019-01-04T07:49:40.794Z,95142.94
2019-01-04T07:52:14.110Z,95144.52
2019-01-04T07:54:47.151Z,95147.56
2019-01-04T07:57:20.422Z,95150.46
2019-01-04T07:59:53.818Z,95144.84
2019-01-04T08:03:00.256Z,95150.83
2019-01-04T08:05:33.628Z,95147.46
2019-01-04T08:08:06.800Z,95159.02
2019-01-04T08:10:39.858Z,95159.13
2019-01-04T08:13:12.917Z,95166.02
2019-01-04T08:15:46.400Z,95167.05
2019-01-04T08:18:19.550Z,95161.62
2019-01-04T08:20:52.860Z,95166.81
2019-01-04T08:23:25.944Z,95162.68
2019-01-04T08:25:59.139Z,95163.66
2019-01-04T08:28:32.318Z,95162.86
2019-01-04T08:31:05.503Z,95161.23
2019-01-04T08:33:38.758Z,95158.00
2019-01-04T08:36:12.122Z,95164.44
2019-01-04T08:38:45.271Z,95163.81
2019-01-04T08:41:18.624Z,95154.16
2019-01-04T08:43:52.195Z,95162.86
2019-01-04T08:46:25.303Z,95161.58
2019-01-04T08:48:58.349Z,95151.92
2019-01-04T08:51:31.399Z,95156.44
2019-01-04T08:54:08.625Z,95147.91
2019-01-04T08:56:42.072Z,95148.88
2019-01-04T08:59:15.514Z,95146.13
2019-01-04T09:01:48.610Z,95141.62
2019-01-04T09:04:21.452Z,95139.05
2019-01-04T09:06:54.232Z,95138.91
2019-01-04T09:09:27.250Z,95142.11
2019-01-04T09:12:01.602Z,95140.13
2019-01-04T09:14:34.682Z,95134.08
2019-01-04T09:17:07.839Z,95132.45
2019-01-04T09:19:40.461Z,95134.26
2019-01-04T09:22:15.788Z,95128.75
2019-01-04T09:24:48.905Z,95128.61
2019-01-04T09:27:22.236Z,95123.78
2019-01-04T09:29:55.347Z,95127.64
2019-01-04T09:32:28.169Z,95124.57
2019-01-04T09:35:01.083Z,95128.30
2019-01-04T09:37:34.074Z,95128.81
2019-01-04T09:40:09.093Z,95131.80
2019-01-04T09:42:43.808Z,95132.95
2019-01-04T09:45:16.853Z,95131.50
2019-01-04T09:47:49.895Z,95133.13
2019-01-04T09:50:22.710Z,95137.05
2019-01-04T09:52:55.617Z,95138.15
2019-01-04T09:55:28.772Z,95142.03
2019-01-04T09:58:05.198Z,95146.04
2019-01-04T10:00:42.039Z,95140.09
2019-01-04T10:03:18.765Z,95140.90
2019-01-04T10:05:55.708Z,95140.98
2019-01-04T10:08:33.394Z,95143.09
2019-01-04T10:11:09.044Z,95140.30
2019-01-04T10:13:43.796Z,95135.45
2019-01-04T10:16:19.055Z,95139.21
2019-01-04T10:18:53.983Z,95132.28
2019-01-04T10:24:28.456Z,95137.98
2019-01-04T10:27:01.794Z,95146.03
2019-01-04T10:29:34.931Z,95147.81
2019-01-04T10:32:08.053Z,95142.69
2019-01-04T10:34:41.281Z,95141.54
2019-01-04T10:37:14.458Z,95151.23
2019-01-04T10:39:47.211Z,95156.70
2019-01-04T10:42:20.374Z,95148.48
2019-01-04T10:44:53.920Z,95147.07
2019-01-04T10:47:26.868Z,95143.98
2019-01-04T10:49:59.806Z,95140.79
2019-01-04T10:52:32.845Z,95142.42
2019-01-04T10:55:07.099Z,95145.05
2019-01-04T10:57:40.232Z,95143.61
2019-01-04T11:00:14.152Z,95145.25
2019-01-04T11:02:47.260Z,95154.23
2019-01-04T11:05:20.498Z,95154.37
2019-01-04T11:07:53.775Z,95152.69
2019-01-04T11:10:26.589Z,95151.94
2019-01-04T11:12:59.692Z,95150.61
2019-01-04T11:15:32.793Z,95152.73
2019-01-04T11:18:09.889Z,95149.88
2019-01-04T11:20:49.410Z,95160.91
2019-01-04T11:24:33.015Z,95160.06
2019-01-04T11:27:13.684Z,95158.90
2019-01-04T11:30:30.627Z,95157.70
2019-01-04T11:33:47.745Z,95166.92
2019-01-04T11:37:17.835Z,95166.30
2019-01-04T11:40:46.654Z,95152.00
2019-01-04T11:44:12.508Z,95156.36
2019-01-04T11:47:32.573Z,95163.94
2019-01-04T11:51:01.362Z,95164.12
2019-01-04T11:53:34.817Z,95170.05
2019-01-04T11:56:08.179Z,95172.48
2019-01-04T11:58:41.399Z,95159.61
2019-01-04T12:01:14.653Z,95161.86
2019-01-04T12:03:59.667Z,95173.30
2019-01-04T12:06:33.027Z,95167.64
2019-01-04T12:09:08.419Z,95158.59
2019-01-04T12:11:41.851Z,95171.59
2019-01-04T12:14:16.355Z,95166.59
2019-01-04T12:16:49.475Z,95173.22
2019-01-04T12:19:22.497Z,95173.98
2019-01-04T12:21:55.716Z,95174.45
2019-01-04T12:24:30.960Z,95173.48
2019-01-04T12:27:04.143Z,95170.13
2019-01-04T12:29:37.090Z,95161.79
2019-01-04T12:32:10.194Z,95164.38
2019-01-04T12:34:43.401Z,95160.83
2019-01-04T12:37:16.619Z,95156.49
2019-01-04T12:39:49.504Z,95162.48
2019-01-04T12:42:24.533Z,95169.27
2019-01-04T12:44:58.129Z,95179.25
2019-01-04T12:47:31.543Z,95175.89
2019-01-04T12:50:04.950Z,95181.03
2019-01-04T12:52:38.290Z,95182.50
2019-01-04T12:55:11.986Z,95185.39
2019-01-04T12:57:45.412Z,95185.22
2019-01-04T13:00:18.882Z,95188.94
2019-01-04T13:02:52.620Z,95190.73
